Terminal Aerodrome Forecast
Issued by NWS

Home | Current Version | Previous Version | Text Only | Print | Product List | Glossary On
Versions: 1 2 3 4 5 6 7 8 9 10 11 12 13 14 15 16 17 18 19 20 21 22 23 24 25 26 27 28 29 30 31 32 33 34 35 36 37
000
FTUS45 KSLC 101735
TAFBCE
TAF
KBCE 101735Z 1018/1118 19009KT P6SM VCTS SCT040CB BKN070
      TEMPO 1018/1022 VRB10G20KT -TSRA BKN040CB
     FM102200 28009KT P6SM VCSH SCT060 BKN090
     FM110200 27006KT P6SM SCT060=

USA.gov is the U.S. government's official web portal to all federal, state and local government web resources and services.